ADDS METAR Data INFO
IDs: Format: Raw Decoded Include TAF

Data at: 1507 UTC 11 Dec 2017

KMWK 111445Z AUTO 32005KT 10SM CLR 02/M04 A3012 RMK AO2 T00161041
KMWK 111425Z AUTO 00000KT 10SM CLR 01/M04 A3013 RMK AO2 T00111042
KMWK 111405Z AUTO 31004KT 10SM CLR 01/M04 A3013 RMK AO2 T00131045
KMWK 111345Z AUTO 33003KT 10SM CLR 00/M04 A3013 RMK AO2 T10041041
KMWK 111325Z AUTO 00000KT 10SM CLR M01/M04 A3014 RMK AO2 T10061045
KMWK 111305Z AUTO 00000KT 10SM CLR M03/M06 A3014 RMK AO2 T10271057
KMWK 111245Z AUTO 00000KT 10SM CLR M04/M06 A3014 RMK AO2 T10361064
KMWK 111225Z AUTO 00000KT 10SM CLR M04/M06 A3012 RMK AO2 T10361063
KMWK 111205Z AUTO 00000KT 10SM CLR M04/M06 A3011 RMK AO2 T10371061
KMWK 111145Z AUTO 00000KT 10SM CLR M03/M06 A3010 RMK AO2 T10351065
KMWK 111125Z AUTO 00000KT 10SM CLR M04/M06 A3010 RMK AO2 T10371062
KMWK 111105Z AUTO 00000KT 10SM CLR M04/M06 A3010 RMK AO2 T10381060
KMWK 111045Z AUTO 00000KT 10SM CLR M04/M06 A3010 RMK AO2 T10371061
KMWK 111025Z AUTO 00000KT 10SM CLR M04/M06 A3009 RMK AO2 T10361060
KMWK 111005Z AUTO 00000KT 10SM CLR M04/M06 A3009 RMK AO2 T10361060
KMWK 110945Z AUTO 00000KT 10SM CLR M03/M06 A3009 RMK AO2 T10351058
KMWK 110925Z AUTO 00000KT 10SM CLR M03/M06 A3009 RMK AO2 T10331060
KMWK 110905Z AUTO 00000KT 10SM CLR M03/M06 A3009 RMK AO2 T10311060
KMWK 110845Z AUTO 00000KT 10SM CLR M03/M06 A3010 RMK AO2 T10301059
KMWK 110825Z AUTO 00000KT 10SM CLR M03/M06 A3010 RMK AO2 T10321056
KMWK 110805Z AUTO 00000KT 10SM CLR M03/M06 A3010 RMK AO2 T10301056
KMWK 110745Z AUTO 00000KT 10SM CLR M03/M05 A3010 RMK AO2 T10311055
KMWK 110725Z AUTO 00000KT 10SM CLR M03/M05 A3010 RMK AO2 T10261054
KMWK 110705Z AUTO 00000KT 10SM CLR M03/M05 A3010 RMK AO2 T10271055
KMWK 110645Z AUTO 00000KT 10SM CLR M03/M05 A3011 RMK AO2 T10271052
KMWK 110625Z AUTO 00000KT 10SM CLR M03/M05 A3011 RMK AO2 T10261055
KMWK 110605Z AUTO 00000KT 10SM CLR M02/M05 A3011 RMK AO2 T10241052
KMWK 110545Z AUTO 00000KT 10SM CLR M03/M05 A3011 RMK AO2 T10261050
KMWK 110525Z AUTO 00000KT 10SM CLR M02/M05 A3011 RMK AO2 T10251050
KMWK 110505Z AUTO 00000KT 10SM CLR M02/M05 A3011 RMK AO2 T10201047
KMWK 110445Z AUTO 00000KT 10SM CLR M02/M05 A3012 RMK AO2 T10221046
KMWK 110425Z AUTO 00000KT 10SM CLR M02/M05 A3012 RMK AO2 T10211048
KMWK 110405Z AUTO 00000KT 10SM CLR M02/M05 A3012 RMK AO2 T10181050
KMWK 110345Z AUTO 00000KT 10SM CLR M01/M05 A3012 RMK AO2 T10131048
KMWK 110325Z AUTO 00000KT 10SM CLR M01/M05 A3011 RMK AO2 T10061047
KMWK 110305Z AUTO 00000KT 10SM CLR M01/M04 A3011 RMK AO2 T10101042
KMWK 110245Z AUTO 00000KT 10SM CLR M01/M04 A3011 RMK AO2 T10101040
KMWK 110225Z AUTO 00000KT 10SM CLR M01/M04 A3011 RMK AO2 T10081040
KMWK 110205Z AUTO 00000KT 10SM CLR 00/M04 A3011 RMK AO2 T00001044
KMWK 110145Z AUTO 00000KT 10SM CLR 00/M05 A3012 RMK AO2 T00021047
KMWK 110125Z AUTO 00000KT 10SM CLR 00/M05 A3011 RMK AO2 T00041049
KMWK 110105Z AUTO 00000KT 10SM CLR 00/M05 A3011 RMK AO2 T00031051
KMWK 110045Z AUTO 00000KT 10SM CLR 01/M05 A3011 RMK AO2 T00111051
KMWK 110025Z AUTO 00000KT 10SM CLR 01/M05 A3011 RMK AO2 T00141053
KMWK 110005Z AUTO 00000KT 10SM CLR 02/M05 A3011 RMK AO2 T00161051
KMWK 102345Z AUTO 00000KT 10SM CLR 02/M05 A3011 RMK AO2 T00171051
KMWK 102325Z AUTO 00000KT 10SM CLR 02/M04 A3011 RMK AO2 T00151045
KMWK 102305Z AUTO 00000KT 10SM CLR 02/M05 A3011 RMK AO2 T00171050
KMWK 102245Z AUTO 00000KT 10SM CLR 02/M05 A3011 RMK AO2 T00211051
KMWK 102225Z AUTO 00000KT 10SM CLR 03/M05 A3011 RMK AO2 T00291055
KMWK 102205Z AUTO 00000KT 10SM CLR 04/M06 A3011 RMK AO2 T00351060
KMWK 102145Z AUTO 23003KT 10SM CLR 04/M07 A3011 RMK AO2 T00401072
KMWK 102125Z AUTO 22004KT 10SM CLR 04/M07 A3011 RMK AO2 T00411070
KMWK 102105Z AUTO 22004KT 10SM CLR 04/M07 A3011 RMK AO2 T00431069
KMWK 102045Z AUTO 23005KT 10SM CLR 04/M07 A3011 RMK AO2 T00421070
KMWK 102025Z AUTO 25005KT 10SM CLR 04/M07 A3010 RMK AO2 T00421070
KMWK 102005Z AUTO 22005KT 10SM CLR 04/M07 A3011 RMK AO2 T00411069
KMWK 101945Z AUTO 23005KT 10SM CLR 04/M07 A3011 RMK AO2 T00381066
KMWK 101925Z AUTO 24006KT 10SM CLR 04/M07 A3011 RMK AO2 T00361072
KMWK 101905Z AUTO 27003KT 10SM CLR 04/M07 A3012 RMK AO2 T00351069
KMWK 101845Z AUTO 20006KT 10SM CLR 03/M06 A3013 RMK AO2 T00321064
KMWK 101825Z AUTO 21007KT 10SM CLR 03/M06 A3013 RMK AO2 T00301060
KMWK 101805Z AUTO 26006KT 10SM CLR 03/M07 A3014 RMK AO2 T00271072
KMWK 101745Z AUTO 22005KT 10SM CLR 03/M07 A3015 RMK AO2 T00271070
KMWK 101725Z AUTO 25005KT 10SM CLR 03/M07 A3017 RMK AO2 T00251071
KMWK 101705Z AUTO 26004KT 10SM CLR 02/M07 A3017 RMK AO2 T00221072
KMWK 101645Z AUTO 28005KT 10SM CLR 02/M07 A3018 RMK AO2 T00201069
KMWK 101625Z AUTO 25004KT 10SM CLR 02/M07 A3018 RMK AO2 T00201067
KMWK 101605Z AUTO 29007KT 10SM SCT037 02/M07 A3019 RMK AO2 T00191069
KMWK 101545Z AUTO 23006KT 10SM BKN037 02/M07 A3019 RMK AO2 T00171071
KMWK 101525Z AUTO 25006KT 10SM SCT039 SCT045 02/M07 A3019 RMK AO2 T00171067
KMWK 101505Z AUTO 25004KT 10SM SCT039 01/M07 A3019 RMK AO2 T00131067
KMWK 101445Z AUTO 26009KT 10SM SCT038 01/M06 A3018 RMK AO2 T00121065
KMWK 101425Z AUTO 26004KT 10SM OVC040 01/M06 A3018 RMK AO2 T00061063
KMWK 101405Z AUTO 00000KT 10SM OVC040 00/M07 A3017 RMK AO2 T00031068
KMWK 101345Z AUTO 28003KT 10SM BKN040 00/M07 A3016 RMK AO2 T00021067
KMWK 101325Z AUTO 29003KT 10SM BKN040 00/M07 A3015 RMK AO2 T00011067
KMWK 101305Z AUTO 29006KT 260V320 10SM OVC038 00/M07 A3014 RMK AO2 T00011070
KMWK 101245Z AUTO 29005KT 10SM OVC038 00/M07 A3013 RMK AO2 T00011069
KMWK 101225Z AUTO 27005KT 10SM OVC040 00/M07 A3012 RMK AO2 T00011066
KMWK 101205Z AUTO 30008KT 250V320 10SM OVC040 00/M07 A3011 RMK AO2 T00011068
KMWK 101145Z AUTO 29013G19KT 10SM OVC040 00/M07 A3010 RMK AO2 T00021068
KMWK 101125Z AUTO 29008G18KT 260V320 10SM OVC040 00/M07 A3010 RMK AO2 T00021068
KMWK 101105Z AUTO 28007G16KT 10SM OVC042 00/M07 A3009 RMK AO2 T00021066
KMWK 101045Z AUTO 29007KT 230V330 10SM OVC042 00/M07 A3008 RMK AO2 T00021067
KMWK 101025Z AUTO 29006KT 10SM OVC042 00/M07 A3007 RMK AO2 T00021066
KMWK 101005Z AUTO 28009G18KT 240V310 10SM OVC044 00/M07 A3005 RMK AO2 T00011067
KMWK 100945Z AUTO 30010G16KT 10SM OVC046 00/M07 A3004 RMK AO2 T00001067
KMWK 100925Z AUTO 30007G15KT 10SM OVC046 00/M07 A3003 RMK AO2 T00001066
KMWK 100905Z AUTO 28007G16KT 10SM OVC046 00/M06 A3003 RMK AO2 T00001065
KMWK 100845Z AUTO 26004KT 10SM BKN046 00/M06 A3003 RMK AO2 T00001061
KMWK 100825Z AUTO 28004KT 10SM SCT039 SCT046 SCT060 00/M06 A3002 RMK AO2 T10011061
KMWK 100805Z AUTO 29005KT 10SM SCT041 SCT046 SCT060 00/M06 A3001 RMK AO2 T00001058
KMWK 100745Z AUTO 28006KT 10SM SCT048 SCT060 00/M06 A3001 RMK AO2 T10011060
KMWK 100725Z AUTO 29004KT 10SM CLR 00/M06 A3000 RMK AO2 T10051061
KMWK 100705Z AUTO 29005KT 10SM CLR 00/M06 A2999 RMK AO2 T10051062
KMWK 100645Z AUTO 30006G15KT 10SM CLR 00/M06 A2999 RMK AO2 T10041063
KMWK 100625Z AUTO 28006KT 240V310 10SM CLR 00/M06 A2998 RMK AO2 T10031065
KMWK 100605Z AUTO 29010G15KT 250V330 10SM CLR 00/M06 A2998 RMK AO2 T10051065
KMWK 100545Z AUTO 30007KT 10SM CLR 00/M07 A2997 RMK AO2 T00001067
KMWK 100525Z AUTO 28006KT 10SM CLR 00/M06 A2997 RMK AO2 T00001065
KMWK 100505Z AUTO 30003G09KT 10SM CLR 00/M06 A2996 RMK AO2 T00001062
KMWK 100445Z AUTO 30010G15KT 10SM CLR 00/M06 A2996 RMK AO2 T00031061
KMWK 100425Z AUTO 29005KT 10SM CLR 00/M04 A2995 RMK AO2 T00011042
KMWK 100405Z AUTO 30004KT 10SM SCT040 SCT048 SCT055 00/M04 A2994 RMK AO2 T00021040
KMWK 100345Z AUTO 29004KT 10SM SCT042 BKN047 00/M03 A2993 RMK AO2 T00011032
KMWK 100325Z AUTO 00000KT 10SM SCT046 SCT060 00/M03 A2992 RMK AO2 T00001032